This is the latest recevied weather packets stored in our database for station/object 9A7DI-13. If no packets are shown the sender has not sent any weather packets the latest 10 day(s).
| Time | Temp. | Humidity | Pressure | Rain* | Wind** | Luminosity | Snow |
|---|---|---|---|---|---|---|---|
| 1777800433 | 22.78° C | 30% | 1029 hPa | - | - | - | - |
| 1777799833 | 22.22° C | 30% | 1029.1 hPa | - | - | - | - |
| 1777799233 | 21.67° C | 35% | 1029.1 hPa | - | - | - | - |
| 1777798633 | 22.22° C | 33% | 1029.1 hPa | - | - | - | - |
| 1777798033 | 22.22° C | 35% | 1029.2 hPa | - | - | - | - |
| 1777797433 | 21.67° C | 36% | 1029.2 hPa | - | - | - | - |
| 1777796833 | 22.78° C | 34% | 1029.1 hPa | - | - | - | - |
| 1777796233 | 21.11° C | 38% | 1029.1 hPa | - | - | - | - |
| 1777795633 | 20° C | 40% | 1029.1 hPa | - | - | - | - |
| 1777795033 | 21.11° C | 39% | 1029.1 hPa | - | - | - | - |
| 1777794433 | 21.67° C | 39% | 1029.2 hPa | - | - | - | - |
| 1777793833 | 21.11° C | 41% | 1029.2 hPa | - | - | - | - |
| 1777793233 | 19.44° C | 41% | 1029.2 hPa | - | - | - | - |
| 1777792633 | 17.78° C | 45% | 1029.1 hPa | - | - | - | - |
| 1777792033 | 18.33° C | 42% | 1029 hPa | - | - | - | - |
| 1777791433 | 16.67° C | 49% | 1029.1 hPa | - | - | - | - |
| 1777790833 | 16.67° C | 51% | 1029.1 hPa | - | - | - | - |
| 1777790233 | 16.67° C | 51% | 1029 hPa | - | - | - | - |
| 1777789633 | 14.44° C | 56% | 1029.2 hPa | - | - | - | - |
| 1777789033 | 13.89° C | 59% | 1029.1 hPa | - | - | - | - |
| 1777788433 | 12.22° C | 58% | 1029.1 hPa | - | - | - | - |
| 1777787833 | 12.78° C | 61% | 1029 hPa | - | - | - | - |
| 1777787233 | 12.22° C | 65% | 1028.9 hPa | - | - | - | - |
| 1777786633 | 11.67° C | 66% | 1028.9 hPa | - | - | - | - |
| 1777786033 | 10.56° C | 68% | 1028.8 hPa | - | - | - | - |
* Rain since midnight (hover to see other rain measurements)
** Current wind speed in m/s (hover to see current wind gust speed)